Pagina principale
METAR-TAF:

METAR-TAF

Aeroporti :

Aeroporto di Pescara

Pescara, Italia

latitudine: 42-26N, longitudine: 014-12E, altezza: 10 m

Osservazione

Il bollettino è stato emesso 17 minuti fa, alle 23:50 UTC
Vento 2 kt da direzioni variabili
Temperature 15°C
Umidità 72%
Pressione 1010 hPa
Visibilità 10 km o più

METAR: LIBP 152350Z AUTO VRB02KT 9999 FEW100/// 15/10 Q1010

Ora: 02:07 (00:07 UTC)

Previsione

Il bollettino è stato emesso 1 ora e 7 minuti fa, alle 23:00 UTC
Previsione valida dal 16 alle 00 UTC al 16 alle 24 UTC
Vento 10 kt da sud-ovest
Visibilità 10 km o più
Nubi sparse ad un'altezza di 6000 ft
Evoluzione graduale
dal 16 alle 11 UTC al 16 alle 13 UTC
Vento 8 kt da est
Evoluzione graduale
dal 16 alle 18 UTC al 16 alle 20 UTC
Vento 12 kt da sud-ovest

TAF: LIBP 152300Z 1600/1624 23010KT 9999 SCT060 BECMG 1611/1613 08008KT BECMG 1618/1620 23012KT

Osservazioni e previsioni meteorologiche di più di 4000 aeroporti (messaggi METAR e TAF).

Le stazioni disponibili sono rappresentate dai dischi gialli e rossi sulla carta.

Puntare il mouse per vedere il nome della stazione.

Clicca sopra per visualizzare le osservazioni e previsioni meteorologiche.

Per cambiare la mappa : fare clic sui pulsanti verdi con una croce nera per ingrandire, il pulsante verde con un trattino per diminuire, o sulla freccia verde per le mappe adiacenti.


METAR-TAF: